Time;durP1;ratioP1;P1;durP2;ratioP2;P2;SDS_P1;SDS_P2;PMS_P1;PMS_P2;Temp;Humidity;BMP_temperature;BMP_pressure;BME280_temperature;BME280_humidity;BME280_pressure;Samples;Min_cycle;Max_cycle;Signal;HPM_P1;HPM_P2
2023/01/07 00:01:30;;;;;;;1.42;1.13;;;9.80;99.90;;;;;;5053977;28;20029;-44
2023/01/07 00:03:57;;;;;;;1.75;1.25;;;9.80;99.90;;;;;;5053484;28;20391;-43
2023/01/07 00:06:26;;;;;;;1.30;1.00;;;9.80;99.90;;;;;;5053188;28;20044;-44
2023/01/07 00:08:53;;;;;;;1.40;1.10;;;9.80;99.90;;;;;;5052978;28;20099;-40
2023/01/07 00:11:22;;;;;;;1.80;1.10;;;9.80;99.90;;;;;;5053149;28;20021;-43
2023/01/07 00:13:49;;;;;;;1.55;1.10;;;9.80;99.90;;;;;;5053180;28;20025;-43
2023/01/07 00:16:18;;;;;;;2.45;1.20;;;9.80;99.90;;;;;;5053073;28;20021;-43
2023/01/07 00:18:45;;;;;;;1.38;1.00;;;9.80;99.90;;;;;;5053073;28;20029;-44
2023/01/07 00:21:13;;;;;;;1.35;1.13;;;9.80;99.90;;;;;;5053527;28;20074;-44
2023/01/07 00:23:40;;;;;;;1.50;1.10;;;9.80;99.90;;;;;;5053069;28;20029;-43
2023/01/07 00:26:12;;;;;;;1.88;1.20;;;9.80;99.90;;;;;;5053101;28;20071;-42
2023/01/07 00:28:40;;;;;;;1.20;0.90;;;9.80;99.90;;;;;;5052971;28;20025;-42
2023/01/07 00:31:17;;;;;;;1.70;1.02;;;9.80;99.90;;;;;;5053498;28;20021;-43
2023/01/07 00:36:19;;;;;;;1.52;1.23;;;9.80;99.90;;;;;;5053565;28;20483;-43
2023/01/07 00:38:45;;;;;;;1.75;1.10;;;9.80;99.90;;;;;;5052890;28;20036;-43
2023/01/07 00:41:11;;;;;;;2.13;1.10;;;9.80;99.90;;;;;;5052582;28;20029;-42
2023/01/07 00:43:36;;;;;;;1.30;1.10;;;9.80;99.90;;;;;;5052418;28;20029;-43
2023/01/07 00:46:02;;;;;;;1.92;1.15;;;9.80;99.90;;;;;;5051779;28;20033;-42
2023/01/07 00:48:28;;;;;;;1.30;1.00;;;9.80;99.90;;;;;;5052185;28;20047;-44
2023/01/07 00:50:54;;;;;;;1.60;1.00;;;9.80;99.90;;;;;;5052260;28;20483;-43
2023/01/07 00:53:20;;;;;;;1.63;1.20;;;9.80;99.90;;;;;;5052524;28;20029;-43
2023/01/07 00:55:48;;;;;;;1.50;1.15;;;9.80;99.90;;;;;;5052272;28;20057;-43
2023/01/07 00:58:17;;;;;;;1.30;1.20;;;9.80;99.90;;;;;;5052576;28;20438;-43
2023/01/07 01:00:43;;;;;;;2.30;1.10;;;9.80;99.90;;;;;;5052424;28;20025;-44
2023/01/07 01:03:10;;;;;;;1.15;0.85;;;9.80;99.90;;;;;;5051560;28;20043;-41
2023/01/07 01:05:36;;;;;;;1.55;1.10;;;9.80;99.90;;;;;;5052029;28;20052;-42
2023/01/07 01:08:02;;;;;;;1.85;1.15;;;9.80;99.90;;;;;;5052383;28;20052;-44
2023/01/07 01:10:27;;;;;;;1.63;1.17;;;9.80;99.90;;;;;;5052254;28;20079;-43
2023/01/07 01:12:53;;;;;;;1.67;1.20;;;9.80;99.90;;;;;;5052075;28;20021;-42
2023/01/07 01:15:19;;;;;;;1.27;0.98;;;9.80;99.90;;;;;;5052215;28;20026;-43
2023/01/07 01:17:44;;;;;;;1.55;1.10;;;9.80;99.90;;;;;;5051679;28;20049;-44
2023/01/07 01:20:12;;;;;;;1.48;1.10;;;9.80;99.90;;;;;;5052402;28;20395;-44
2023/01/07 01:22:38;;;;;;;1.67;1.25;;;9.80;99.90;;;;;;5052432;28;20027;-44
2023/01/07 01:25:05;;;;;;;1.70;1.48;;;9.80;99.90;;;;;;5052040;28;20029;-44
2023/01/07 01:27:30;;;;;;;1.38;1.00;;;9.80;99.90;;;;;;5052224;28;20025;-44
2023/01/07 01:29:57;;;;;;;1.77;1.10;;;9.80;99.90;;;;;;5051929;28;20024;-43
2023/01/07 01:32:23;;;;;;;1.30;1.10;;;9.80;99.90;;;;;;5052035;28;20147;-44
2023/01/07 01:34:49;;;;;;;3.70;1.25;;;9.80;99.90;;;;;;5051607;28;20099;-43
2023/01/07 01:37:14;;;;;;;2.92;1.10;;;9.80;99.90;;;;;;5051207;28;20024;-42
2023/01/07 01:39:40;;;;;;;1.73;1.33;;;9.80;99.90;;;;;;5051431;28;20029;-44
2023/01/07 01:42:08;;;;;;;1.27;1.10;;;9.80;99.90;;;;;;5052093;28;20025;-44
2023/01/07 01:44:35;;;;;;;1.50;1.00;;;9.80;99.90;;;;;;5051752;28;20262;-44
2023/01/07 01:47:04;;;;;;;3.42;1.05;;;9.80;99.90;;;;;;5051084;28;20025;-44
2023/01/07 01:49:34;;;;;;;1.70;1.10;;;9.80;99.90;;;;;;5051586;28;20053;-44
2023/01/07 01:52:05;;;;;;;1.48;1.00;;;9.80;99.90;;;;;;5051623;28;20028;-43
2023/01/07 01:54:32;;;;;;;1.52;0.85;;;9.80;99.90;;;;;;5051820;28;20055;-43
2023/01/07 01:57:01;;;;;;;1.50;1.30;;;9.80;99.90;;;;;;5051548;28;20059;-43
2023/01/07 01:59:31;;;;;;;1.10;0.95;;;9.80;99.90;;;;;;5051291;28;20525;-42
2023/01/07 02:01:57;;;;;;;2.80;0.93;;;9.80;99.90;;;;;;5051552;28;20029;-43
2023/01/07 02:04:24;;;;;;;1.92;1.20;;;9.80;99.90;;;;;;5051249;28;20057;-43
2023/01/07 02:07:00;;;;;;;1.40;1.00;;;9.80;99.90;;;;;;5051275;28;20484;-44
2023/01/07 02:09:26;;;;;;;1.58;1.10;;;9.80;99.90;;;;;;5051525;28;20168;-43
2023/01/07 02:12:16;;;;;;;1.27;1.00;;;9.80;99.90;;;;;;5051622;28;20122;-43
2023/01/07 02:14:48;;;;;;;1.10;0.90;;;9.80;99.90;;;;;;5053983;28;20021;-42
2023/01/07 02:17:46;;;;;;;1.38;0.90;;;9.70;99.90;;;;;;5054980;28;20040;-42
2023/01/07 02:20:24;;;;;;;1.42;1.02;;;9.80;99.90;;;;;;5055879;28;20389;-44
2023/01/07 02:23:27;;;;;;;1.67;1.00;;;9.80;99.90;;;;;;5055857;28;20086;-44
2023/01/07 02:26:11;;;;;;;1.42;1.13;;;9.80;99.90;;;;;;5055466;28;20103;-43
2023/01/07 02:28:58;;;;;;;1.60;1.15;;;9.80;99.90;;;;;;5055431;28;20391;-43
2023/01/07 02:32:01;;;;;;;1.38;1.00;;;9.80;99.90;;;;;;5055836;28;20100;-41
2023/01/07 02:34:32;;;;;;;1.23;0.85;;;9.80;99.90;;;;;;5054997;28;20036;-42
2023/01/07 02:37:26;;;;;;;1.33;0.93;;;9.80;99.90;;;;;;5054591;28;20025;-44
2023/01/07 02:40:35;;;;;;;1.70;0.95;;;9.80;99.90;;;;;;5055277;28;20043;-44
2023/01/07 02:43:29;;;;;;;1.25;0.90;;;9.80;99.90;;;;;;5055341;28;20509;-44
2023/01/07 02:46:05;;;;;;;1.23;0.93;;;9.80;99.90;;;;;;5054875;28;20057;-42
2023/01/07 02:48:32;;;;;;;1.30;0.90;;;9.80;99.90;;;;;;5054466;28;20025;-44
2023/01/07 02:50:57;;;;;;;1.40;0.93;;;9.80;99.90;;;;;;5054637;28;20025;-44
2023/01/07 02:53:23;;;;;;;1.50;0.93;;;9.80;99.90;;;;;;5054572;28;20021;-42
2023/01/07 02:55:55;;;;;;;1.55;0.80;;;9.80;99.90;;;;;;5054226;28;20445;-43
2023/01/07 02:58:29;;;;;;;1.25;0.82;;;9.80;99.90;;;;;;5054530;28;20269;-43
2023/01/07 03:01:03;;;;;;;1.08;0.90;;;9.80;99.90;;;;;;5054707;28;20093;-44
2023/01/07 03:04:14;;;;;;;1.33;0.85;;;9.80;99.90;;;;;;5054524;28;20500;-44
2023/01/07 03:06:54;;;;;;;0.85;0.70;;;9.80;99.90;;;;;;5044076;28;20041;-43
2023/01/07 03:09:41;;;;;;;1.17;0.90;;;9.80;99.90;;;;;;5054199;28;20028;-44
2023/01/07 03:12:31;;;;;;;0.82;0.75;;;9.80;99.90;;;;;;5054556;28;20021;-43
2023/01/07 03:15:21;;;;;;;0.95;0.80;;;9.80;99.90;;;;;;5054626;28;20536;-43
2023/01/07 03:18:00;;;;;;;1.10;0.80;;;9.80;99.90;;;;;;5047912;28;20128;-44
2023/01/07 03:20:28;;;;;;;1.42;0.82;;;9.80;99.90;;;;;;5054287;28;20048;-44
2023/01/07 03:22:56;;;;;;;0.90;0.80;;;9.80;99.90;;;;;;5054225;28;20029;-44
2023/01/07 03:25:25;;;;;;;1.25;0.85;;;9.80;99.90;;;;;;5053619;28;20435;-44
2023/01/07 03:27:52;;;;;;;1.20;0.80;;;9.70;99.90;;;;;;5053600;28;20119;-43
2023/01/07 03:30:20;;;;;;;1.35;0.98;;;9.80;99.90;;;;;;5053879;28;20029;-43
2023/01/07 03:33:01;;;;;;;1.38;0.85;;;9.80;99.90;;;;;;5054336;28;20021;-43
2023/01/07 03:35:29;;;;;;;1.08;0.77;;;9.70;99.90;;;;;;5053928;28;20045;-43
2023/01/07 03:37:58;;;;;;;1.13;0.80;;;9.70;99.90;;;;;;5053607;28;20032;-43
2023/01/07 03:40:24;;;;;;;1.65;1.00;;;9.80;99.90;;;;;;5054224;28;20382;-43
2023/01/07 03:42:50;;;;;;;1.10;0.90;;;9.80;99.90;;;;;;5054205;28;20033;-43
2023/01/07 03:45:18;;;;;;;1.08;0.80;;;9.80;99.90;;;;;;5054542;28;20418;-44
2023/01/07 03:47:49;;;;;;;1.27;0.82;;;9.80;99.90;;;;;;5053170;28;20169;-41
2023/01/07 03:50:16;;;;;;;1.88;0.80;;;9.80;99.90;;;;;;5052096;28;20081;-43
2023/01/07 03:52:42;;;;;;;1.45;0.88;;;9.80;99.90;;;;;;5053467;28;20082;-44
2023/01/07 03:55:09;;;;;;;1.10;0.80;;;9.70;99.90;;;;;;5053164;28;20037;-44
2023/01/07 03:57:35;;;;;;;1.50;0.90;;;9.80;99.90;;;;;;5052934;28;20083;-43
2023/01/07 04:00:00;;;;;;;1.15;0.80;;;9.80;99.90;;;;;;5053491;28;20025;-42
2023/01/07 04:02:26;;;;;;;1.27;0.77;;;9.70;99.90;;;;;;5053622;28;20021;-43
2023/01/07 04:04:52;;;;;;;1.30;0.77;;;9.80;99.90;;;;;;5053746;28;20463;-43
2023/01/07 04:07:18;;;;;;;0.90;0.80;;;9.80;99.90;;;;;;5053426;28;20114;-43
2023/01/07 04:09:46;;;;;;;1.48;0.80;;;9.80;99.90;;;;;;5053829;28;20035;-44
2023/01/07 04:12:13;;;;;;;1.50;1.13;;;9.80;99.90;;;;;;5054041;28;20498;-41
2023/01/07 04:14:38;;;;;;;1.00;0.75;;;9.80;99.90;;;;;;5053843;28;20433;-44
2023/01/07 04:17:04;;;;;;;1.30;0.90;;;9.80;99.90;;;;;;5053069;28;20032;-44
2023/01/07 04:19:30;;;;;;;0.88;0.80;;;9.80;99.90;;;;;;5052968;28;20181;-43
2023/01/07 04:21:56;;;;;;;1.23;0.80;;;9.80;99.90;;;;;;5053732;28;20467;-44
2023/01/07 04:24:21;;;;;;;1.05;0.90;;;9.80;99.90;;;;;;5052865;28;20138;-44
2023/01/07 04:26:47;;;;;;;1.38;1.00;;;9.80;99.90;;;;;;5052642;28;20031;-43
2023/01/07 04:29:13;;;;;;;1.23;0.90;;;9.80;99.90;;;;;;5052934;28;20098;-42
2023/01/07 04:31:38;;;;;;;1.00;0.90;;;9.80;99.90;;;;;;5052828;28;20044;-43
2023/01/07 04:34:04;;;;;;;1.10;0.93;;;9.80;99.90;;;;;;5052726;28;20482;-43
2023/01/07 04:36:30;;;;;;;2.30;1.05;;;9.80;99.90;;;;;;5052900;28;20025;-43
2023/01/07 04:38:56;;;;;;;0.90;0.70;;;9.80;99.90;;;;;;5053152;28;20618;-43
2023/01/07 04:41:21;;;;;;;1.10;0.80;;;9.80;99.90;;;;;;5052589;28;20052;-44
2023/01/07 04:43:47;;;;;;;1.17;0.80;;;9.80;99.90;;;;;;5053117;28;20021;-44
2023/01/07 04:46:13;;;;;;;1.20;0.90;;;9.80;99.90;;;;;;5052230;28;20028;-44
2023/01/07 04:48:38;;;;;;;1.27;1.08;;;9.70;99.90;;;;;;5052543;28;20040;-44
2023/01/07 04:51:04;;;;;;;1.35;1.00;;;9.80;99.90;;;;;;5051132;28;20494;-44
2023/01/07 04:53:30;;;;;;;1.13;0.85;;;9.80;99.90;;;;;;5052597;28;20082;-43
2023/01/07 04:55:55;;;;;;;1.10;0.85;;;9.70;99.90;;;;;;5052199;28;20037;-43
2023/01/07 04:58:21;;;;;;;0.90;0.70;;;9.80;99.90;;;;;;5052533;28;20450;-42
2023/01/07 05:00:47;;;;;;;1.80;0.90;;;9.80;99.90;;;;;;5052766;28;20036;-43
2023/01/07 05:03:13;;;;;;;1.40;0.90;;;9.80;99.90;;;;;;5052894;28;20028;-43
2023/01/07 05:05:38;;;;;;;1.10;0.90;;;9.70;99.90;;;;;;5052367;28;20029;-43
2023/01/07 05:08:04;;;;;;;1.13;0.82;;;9.70;99.90;;;;;;5052156;28;20116;-44
2023/01/07 05:10:30;;;;;;;1.00;0.80;;;9.70;99.90;;;;;;5051913;28;20021;-43
2023/01/07 05:12:55;;;;;;;0.77;0.77;;;9.70;99.90;;;;;;5052236;28;20056;-42
2023/01/07 05:15:21;;;;;;;1.02;0.75;;;9.70;99.90;;;;;;5052341;28;20025;-43
2023/01/07 05:17:47;;;;;;;1.00;0.75;;;9.70;99.90;;;;;;5051961;28;20029;-42
2023/01/07 05:20:13;;;;;;;1.48;0.90;;;9.80;99.90;;;;;;5050799;28;20025;-44
2023/01/07 05:22:38;;;;;;;1.13;1.00;;;9.70;99.90;;;;;;5052190;28;20025;-44
2023/01/07 05:25:04;;;;;;;1.00;0.73;;;9.70;99.90;;;;;;5051980;28;20037;-43
2023/01/07 05:27:30;;;;;;;0.70;0.63;;;9.70;99.90;;;;;;5051439;28;20087;-44
2023/01/07 05:29:56;;;;;;;1.33;1.00;;;9.70;99.90;;;;;;5051862;28;20714;-43
2023/01/07 05:32:21;;;;;;;1.15;0.95;;;9.80;99.90;;;;;;5052306;28;20029;-44
2023/01/07 05:34:47;;;;;;;1.10;0.90;;;9.70;99.90;;;;;;5051801;28;20044;-43
2023/01/07 05:37:13;;;;;;;1.80;0.80;;;9.70;99.90;;;;;;5051844;28;20098;-44
2023/01/07 05:39:38;;;;;;;1.25;1.00;;;9.70;99.90;;;;;;5051704;28;20025;-43
2023/01/07 05:42:04;;;;;;;1.35;0.85;;;9.70;99.90;;;;;;5052112;28;20167;-43
2023/01/07 05:44:30;;;;;;;1.10;0.95;;;9.80;99.90;;;;;;5051619;28;20029;-43
2023/01/07 05:46:55;;;;;;;0.93;0.70;;;9.70;99.90;;;;;;5051031;28;20079;-40
2023/01/07 05:49:21;;;;;;;0.98;0.80;;;9.70;99.90;;;;;;5051052;28;20114;-42
2023/01/07 05:51:46;;;;;;;1.75;1.02;;;9.70;99.90;;;;;;5051746;28;20021;-42
2023/01/07 05:54:12;;;;;;;1.20;0.90;;;9.80;99.90;;;;;;5051349;28;20025;-43
2023/01/07 05:56:37;;;;;;;0.90;0.80;;;9.70;99.90;;;;;;5051168;28;20112;-44
2023/01/07 05:59:03;;;;;;;2.13;1.00;;;9.70;99.90;;;;;;5051312;28;20083;-44
2023/01/07 06:01:29;;;;;;;0.93;0.82;;;9.70;99.90;;;;;;5051098;28;20028;-43
2023/01/07 06:03:54;;;;;;;1.30;1.10;;;9.70;99.90;;;;;;5051223;28;20043;-43
2023/01/07 06:06:20;;;;;;;1.10;1.00;;;9.70;99.90;;;;;;5051030;28;20036;-44
2023/01/07 06:08:45;;;;;;;1.10;0.80;;;9.70;99.90;;;;;;5051256;28;20481;-43
2023/01/07 06:11:11;;;;;;;1.35;0.90;;;9.70;99.90;;;;;;5051218;28;20028;-42
2023/01/07 06:13:37;;;;;;;1.35;1.00;;;9.70;99.90;;;;;;5051521;28;20036;-43
2023/01/07 06:16:05;;;;;;;1.48;1.00;;;9.70;99.90;;;;;;5050823;28;20021;-44
2023/01/07 06:18:31;;;;;;;1.10;1.00;;;9.70;99.90;;;;;;5051158;28;20041;-43
2023/01/07 06:20:56;;;;;;;1.20;0.90;;;9.70;99.90;;;;;;5051667;28;20525;-44
2023/01/07 06:23:22;;;;;;;1.40;0.90;;;9.70;99.90;;;;;;5051528;28;20497;-42
2023/01/07 06:25:48;;;;;;;1.02;0.90;;;9.70;99.90;;;;;;5050951;28;20017;-44
2023/01/07 06:28:14;;;;;;;1.20;1.10;;;9.70;99.90;;;;;;5051387;28;20029;-44
2023/01/07 06:30:39;;;;;;;2.30;0.90;;;9.70;99.90;;;;;;5050894;28;20138;-43
2023/01/07 06:33:05;;;;;;;1.42;1.00;;;9.70;99.90;;;;;;5050949;28;20029;-44
2023/01/07 06:35:32;;;;;;;1.75;1.20;;;9.70;99.90;;;;;;5051068;28;20100;-43
2023/01/07 06:37:59;;;;;;;1.20;0.95;;;9.70;99.90;;;;;;5050652;28;20032;-43
2023/01/07 06:40:25;;;;;;;1.45;1.00;;;9.70;99.90;;;;;;5050893;28;20372;-42
2023/01/07 06:42:51;;;;;;;1.17;1.00;;;9.70;99.90;;;;;;5051130;28;20086;-41
2023/01/07 06:45:16;;;;;;;1.10;1.00;;;9.70;99.90;;;;;;5051022;28;20740;-43
2023/01/07 06:47:42;;;;;;;1.05;0.88;;;9.70;99.90;;;;;;5050561;28;20036;-43
2023/01/07 06:50:08;;;;;;;1.55;1.00;;;9.70;99.90;;;;;;5051380;28;20021;-44
2023/01/07 06:52:34;;;;;;;2.30;1.20;;;9.70;99.90;;;;;;5050856;28;20495;-43
2023/01/07 06:55:00;;;;;;;1.20;0.90;;;9.70;99.90;;;;;;5050693;28;20072;-44
2023/01/07 06:57:25;;;;;;;1.20;0.90;;;9.70;99.90;;;;;;5051095;28;20033;-43
2023/01/07 06:59:51;;;;;;;0.98;0.90;;;9.70;99.90;;;;;;5051883;28;20051;-43
2023/01/07 07:02:22;;;;;;;1.30;1.00;;;9.70;99.90;;;;;;5054783;28;20063;-41
2023/01/07 07:04:48;;;;;;;1.00;0.85;;;9.70;99.90;;;;;;5055276;28;20053;-41
2023/01/07 07:07:14;;;;;;;1.00;0.88;;;9.70;99.90;;;;;;5053843;28;20276;-42
2023/01/07 07:09:40;;;;;;;1.05;0.93;;;9.70;99.90;;;;;;5055431;28;20035;-43
2023/01/07 07:12:06;;;;;;;1.17;0.80;;;9.70;99.90;;;;;;5054444;28;20572;-44
2023/01/07 07:14:32;;;;;;;1.30;0.82;;;9.70;99.90;;;;;;5054227;28;20036;-44
2023/01/07 07:16:58;;;;;;;1.00;0.90;;;9.70;99.90;;;;;;5054260;28;20021;-41
2023/01/07 07:19:23;;;;;;;1.42;1.05;;;9.70;99.90;;;;;;5054203;28;20025;-43
2023/01/07 07:21:49;;;;;;;1.02;0.93;;;9.70;99.90;;;;;;5054285;28;20024;-44
2023/01/07 07:24:15;;;;;;;1.45;0.90;;;9.70;99.90;;;;;;5054751;28;20036;-41
2023/01/07 07:26:40;;;;;;;1.70;1.10;;;9.70;99.90;;;;;;5054167;28;20387;-43
2023/01/07 07:29:07;;;;;;;1.40;0.88;;;9.70;99.90;;;;;;5054142;28;20032;-43
2023/01/07 07:31:32;;;;;;;1.85;1.50;;;9.70;99.90;;;;;;5054091;28;20475;-44
2023/01/07 07:33:58;;;;;;;1.83;1.00;;;9.70;99.90;;;;;;5053891;28;20029;-43
2023/01/07 07:36:23;;;;;;;0.98;0.85;;;9.70;99.90;;;;;;5053938;28;20083;-44
2023/01/07 07:38:49;;;;;;;1.10;0.80;;;9.70;99.90;;;;;;5054141;28;20433;-42
2023/01/07 07:41:15;;;;;;;3.00;1.25;;;9.70;99.90;;;;;;5053752;28;20441;-43
2023/01/07 07:43:40;;;;;;;2.10;1.02;;;9.70;99.90;;;;;;5054144;28;20025;-43
2023/01/07 07:46:06;;;;;;;1.75;1.15;;;9.70;99.90;;;;;;5053865;28;20356;-44
2023/01/07 07:48:31;;;;;;;1.95;1.10;;;9.70;99.90;;;;;;5053535;28;20033;-44
2023/01/07 07:50:57;;;;;;;1.15;0.90;;;9.70;99.90;;;;;;5053592;28;20021;-41
2023/01/07 07:53:23;;;;;;;1.90;1.30;;;9.70;99.90;;;;;;5053604;28;20083;-43
2023/01/07 07:55:48;;;;;;;2.10;1.25;;;9.70;99.90;;;;;;5053386;28;20449;-44
2023/01/07 07:58:14;;;;;;;2.22;1.55;;;9.70;99.90;;;;;;5053335;28;20036;-44
2023/01/07 08:00:40;;;;;;;1.85;1.20;;;9.70;99.90;;;;;;5053813;28;20123;-43
2023/01/07 08:03:05;;;;;;;1.60;1.30;;;9.70;99.90;;;;;;5053699;28;20124;-43
2023/01/07 08:05:31;;;;;;;1.42;1.20;;;9.70;99.90;;;;;;5053411;28;20024;-41
2023/01/07 08:07:57;;;;;;;5.53;2.30;;;9.70;99.90;;;;;;5052636;28;20029;-44
2023/01/07 08:10:25;;;;;;;4.18;2.70;;;9.70;99.90;;;;;;5053192;28;20112;-44
2023/01/07 08:12:51;;;;;;;3.08;2.60;;;9.60;99.90;;;;;;5052539;28;20017;-40
2023/01/07 08:15:17;;;;;;;2.85;2.15;;;9.50;99.90;;;;;;5053102;28;20013;-42
2023/01/07 08:17:43;;;;;;;3.05;2.22;;;9.50;99.90;;;;;;5052813;28;20021;-43
2023/01/07 08:20:09;;;;;;;3.58;2.80;;;9.50;99.90;;;;;;5053391;28;20068;-42
2023/01/07 08:22:35;;;;;;;4.65;2.83;;;9.50;99.90;;;;;;5052925;28;20453;-43
2023/01/07 08:25:01;;;;;;;3.00;2.55;;;9.50;99.90;;;;;;5052960;28;20526;-44
2023/01/07 08:27:27;;;;;;;3.28;2.30;;;9.50;99.90;;;;;;5052469;28;20035;-44
2023/01/07 08:29:54;;;;;;;3.15;2.58;;;9.50;99.90;;;;;;5053172;28;20024;-43
2023/01/07 08:32:20;;;;;;;3.13;2.30;;;9.50;99.90;;;;;;5052779;28;20048;-44
2023/01/07 08:34:46;;;;;;;3.13;2.45;;;9.50;99.90;;;;;;5052757;28;20470;-44
2023/01/07 08:37:11;;;;;;;2.75;2.25;;;9.60;99.90;;;;;;5052218;28;20086;-41
2023/01/07 08:39:37;;;;;;;3.22;2.28;;;9.50;99.90;;;;;;5052660;28;20116;-42
2023/01/07 08:42:03;;;;;;;3.70;2.47;;;9.60;99.90;;;;;;5052561;28;20032;-42
2023/01/07 08:44:29;;;;;;;3.92;2.88;;;9.60;99.90;;;;;;5052839;28;20029;-41
2023/01/07 08:46:54;;;;;;;2.85;2.42;;;9.60;99.90;;;;;;5052539;28;20029;-43
2023/01/07 08:49:21;;;;;;;2.70;2.25;;;9.60;99.90;;;;;;5052512;28;20029;-42
2023/01/07 08:51:46;;;;;;;4.82;2.60;;;9.60;99.90;;;;;;5052371;28;20091;-44
2023/01/07 08:54:12;;;;;;;2.90;2.20;;;9.60;99.90;;;;;;5052541;28;20021;-44
2023/01/07 08:56:38;;;;;;;3.05;2.42;;;9.60;99.90;;;;;;5052627;28;20040;-43
2023/01/07 08:59:03;;;;;;;4.38;2.75;;;9.60;99.90;;;;;;5052232;28;20368;-43
2023/01/07 09:01:29;;;;;;;2.90;2.20;;;9.60;99.90;;;;;;5053248;28;20036;-43
2023/01/07 09:03:55;;;;;;;4.35;2.65;;;9.60;99.90;;;;;;5052168;28;20612;-43
2023/01/07 09:06:22;;;;;;;3.40;2.40;;;9.60;99.90;;;;;;5052087;28;20076;-44
2023/01/07 09:08:48;;;;;;;3.85;2.22;;;9.60;99.90;;;;;;5051936;28;20517;-41
2023/01/07 09:11:13;;;;;;;3.47;2.60;;;9.60;99.90;;;;;;5052247;28;20033;-42
2023/01/07 09:13:39;;;;;;;2.55;2.35;;;9.60;99.90;;;;;;5052624;28;20029;-41
2023/01/07 09:16:05;;;;;;;3.92;2.30;;;9.60;99.90;;;;;;5052567;28;20487;-42
2023/01/07 09:18:30;;;;;;;2.90;2.35;;;9.60;99.90;;;;;;5052546;28;20540;-41
2023/01/07 09:20:56;;;;;;;3.78;2.40;;;9.60;99.90;;;;;;5051993;28;20025;-44
2023/01/07 09:23:22;;;;;;;3.30;2.58;;;9.60;99.90;;;;;;5051367;28;20040;-44
2023/01/07 09:25:47;;;;;;;2.75;2.47;;;9.60;99.90;;;;;;5052411;28;20028;-44
2023/01/07 09:28:13;;;;;;;5.28;3.00;;;9.70;99.90;;;;;;5051809;28;20036;-44
2023/01/07 09:30:38;;;;;;;3.40;2.50;;;9.60;99.90;;;;;;5051708;28;20108;-42
2023/01/07 09:33:04;;;;;;;5.53;2.70;;;9.70;99.90;;;;;;5051629;28;20021;-41
2023/01/07 09:35:30;;;;;;;3.28;2.50;;;9.70;99.90;;;;;;5052039;28;20096;-44
2023/01/07 09:37:56;;;;;;;3.35;2.42;;;9.70;99.90;;;;;;5051519;28;20382;-43
2023/01/07 09:40:29;;;;;;;3.42;2.40;;;9.70;99.90;;;;;;5052008;28;20029;-44
2023/01/07 09:43:03;;;;;;;3.60;2.70;;;9.70;99.90;;;;;;5051990;28;20029;-44
2023/01/07 09:45:41;;;;;;;3.15;2.35;;;9.70;99.90;;;;;;5052535;28;20120;-44
2023/01/07 09:48:32;;;;;;;2.85;2.40;;;9.70;99.90;;;;;;5051206;28;20029;-45
2023/01/07 09:51:13;;;;;;;8.68;5.97;;;9.80;99.90;;;;;;5046538;28;20513;-42
2023/01/07 09:53:45;;;;;;;8.18;5.93;;;9.80;99.90;;;;;;5051648;28;20029;-43
2023/01/07 09:56:26;;;;;;;7.95;6.32;;;9.90;99.90;;;;;;5051417;28;20029;-42
2023/01/07 09:58:52;;;;;;;7.60;6.13;;;10.00;99.90;;;;;;5051996;28;20033;-45
2023/01/07 10:01:31;;;;;;;8.82;5.97;;;10.10;99.90;;;;;;5052218;28;20037;-40
2023/01/07 10:04:30;;;;;;;7.05;5.80;;;10.20;99.90;;;;;;5051014;28;20094;-45
2023/01/07 10:07:01;;;;;;;8.07;5.30;;;10.20;99.90;;;;;;5051088;28;20036;-43
2023/01/07 10:09:27;;;;;;;9.25;5.53;;;10.30;99.90;;;;;;5051197;28;20482;-41
2023/01/07 10:12:10;;;;;;;8.00;5.30;;;10.40;99.90;;;;;;5053257;28;20082;-43
2023/01/07 10:15:00;;;;;;;7.90;5.25;;;10.40;99.90;;;;;;5051444;28;20029;-44
2023/01/07 10:17:41;;;;;;;6.53;5.07;;;10.40;99.90;;;;;;5051406;28;20033;-44
2023/01/07 10:20:31;;;;;;;8.57;5.45;;;10.50;99.90;;;;;;5051978;28;20032;-44
2023/01/07 10:23:07;;;;;;;8.70;4.88;;;10.60;99.90;;;;;;5052731;28;20021;-43
2023/01/07 10:25:40;;;;;;;6.40;5.10;;;10.60;99.90;;;;;;5051902;28;20025;-44
2023/01/07 10:28:13;;;;;;;5.88;4.20;;;10.70;99.90;;;;;;5051388;28;20090;-43
2023/01/07 10:30:43;;;;;;;6.03;4.80;;;10.70;99.90;;;;;;5049787;28;20021;-44
2023/01/07 10:33:27;;;;;;;5.40;4.07;;;10.70;99.90;;;;;;5052237;28;20431;-44
2023/01/07 10:36:30;;;;;;;6.50;4.33;;;10.80;99.90;;;;;;5054488;28;20467;-44
2023/01/07 10:39:07;;;;;;;5.43;4.15;;;10.80;99.90;;;;;;5054843;28;20024;-43
2023/01/07 10:42:08;;;;;;;5.70;4.25;;;10.90;99.90;;;;;;5056550;28;20035;-44
2023/01/07 10:44:53;;;;;;;5.10;3.90;;;10.90;99.90;;;;;;5054876;28;20035;-43
2023/01/07 10:47:28;;;;;;;5.38;3.97;;;10.90;99.90;;;;;;5055342;28;20395;-44
2023/01/07 10:50:16;;;;;;;5.85;4.15;;;11.00;99.90;;;;;;5056010;28;20096;-43
2023/01/07 10:53:00;;;;;;;5.40;3.80;;;11.10;99.90;;;;;;5055025;28;20033;-44
2023/01/07 10:55:44;;;;;;;6.32;3.92;;;11.10;99.90;;;;;;5054921;28;20037;-45
2023/01/07 10:58:11;;;;;;;5.40;4.25;;;11.30;99.90;;;;;;5056901;28;20112;-44
2023/01/07 11:00:40;;;;;;;4.50;3.78;;;11.30;99.90;;;;;;5054518;28;20083;-45
2023/01/07 11:03:17;;;;;;;6.38;4.05;;;11.30;99.90;;;;;;5056108;28;20063;-41
2023/01/07 11:05:45;;;;;;;4.75;3.80;;;11.30;99.90;;;;;;5054593;28;20103;-43
2023/01/07 11:08:23;;;;;;;5.82;4.45;;;11.30;99.90;;;;;;5054888;28;20378;-41
2023/01/07 11:10:49;;;;;;;4.93;3.90;;;11.30;99.90;;;;;;5056746;28;20033;-42
2023/01/07 11:13:25;;;;;;;4.75;3.90;;;11.30;99.90;;;;;;5055867;28;20106;-43
2023/01/07 11:15:55;;;;;;;5.20;4.00;;;11.30;99.90;;;;;;5054904;28;20021;-44
2023/01/07 11:18:29;;;;;;;5.32;3.80;;;11.30;99.90;;;;;;5054088;28;20067;-43
2023/01/07 11:20:58;;;;;;;4.70;3.67;;;11.30;99.90;;;;;;5054240;28;20087;-42
2023/01/07 11:23:34;;;;;;;5.20;4.30;;;11.30;99.90;;;;;;5054813;28;20029;-44
2023/01/07 11:26:08;;;;;;;5.20;3.85;;;11.30;99.90;;;;;;5054228;28;20025;-44
2023/01/07 11:28:35;;;;;;;4.82;4.03;;;11.30;99.90;;;;;;5054140;28;20384;-41
2023/01/07 11:31:01;;;;;;;4.90;4.15;;;11.30;99.90;;;;;;5054000;28;20028;-44
2023/01/07 11:33:41;;;;;;;6.00;4.80;;;11.30;99.90;;;;;;5054372;28;20044;-42
2023/01/07 11:36:07;;;;;;;4.63;3.90;;;11.30;99.90;;;;;;5053614;28;20017;-44
2023/01/07 11:38:37;;;;;;;6.80;4.50;;;11.30;99.90;;;;;;5054134;28;20032;-44
2023/01/07 11:41:06;;;;;;;5.93;3.92;;;11.20;99.90;;;;;;5054380;28;20061;-42
2023/01/07 11:43:39;;;;;;;6.78;4.22;;;11.20;99.90;;;;;;5054026;28;20021;-44
2023/01/07 11:46:13;;;;;;;4.70;3.58;;;11.20;99.90;;;;;;5052748;28;20104;-44
2023/01/07 11:48:48;;;;;;;4.70;3.47;;;11.30;99.90;;;;;;5053806;28;20074;-44
2023/01/07 11:51:15;;;;;;;5.45;4.03;;;11.30;99.90;;;;;;5053731;28;20025;-44
2023/01/07 11:53:51;;;;;;;5.78;4.03;;;11.30;99.90;;;;;;5054102;28;20311;-43
2023/01/07 11:56:20;;;;;;;6.45;4.15;;;11.30;99.90;;;;;;5053771;28;20491;-41
2023/01/07 11:58:51;;;;;;;5.00;3.92;;;11.30;99.90;;;;;;5053411;28;20037;-44
2023/01/07 12:01:23;;;;;;;5.60;4.35;;;11.30;99.90;;;;;;5053974;28;20076;-44
2023/01/07 12:03:52;;;;;;;4.65;3.83;;;11.30;99.90;;;;;;5053264;28;20109;-43
2023/01/07 12:06:29;;;;;;;4.57;4.03;;;11.30;99.90;;;;;;5053745;28;20107;-43
2023/01/07 12:09:03;;;;;;;5.45;4.20;;;11.20;99.90;;;;;;5053615;28;20447;-43
2023/01/07 12:11:32;;;;;;;5.72;4.03;;;11.20;99.90;;;;;;5053058;28;20017;-43
2023/01/07 12:14:15;;;;;;;5.88;4.28;;;11.20;99.90;;;;;;5053152;28;20028;-44
2023/01/07 12:16:43;;;;;;;7.45;4.65;;;11.20;99.90;;;;;;5053041;28;20025;-43
2023/01/07 12:19:08;;;;;;;5.82;4.40;;;11.10;99.90;;;;;;5053002;28;20025;-41
2023/01/07 12:21:53;;;;;;;6.25;3.97;;;11.10;99.90;;;;;;5053158;28;20075;-44
2023/01/07 12:24:23;;;;;;;5.55;4.35;;;11.10;99.90;;;;;;5052937;28;20024;-43
2023/01/07 12:26:52;;;;;;;4.47;4.00;;;11.00;99.90;;;;;;5053119;28;20033;-43
2023/01/07 12:29:36;;;;;;;6.10;4.20;;;11.00;99.90;;;;;;5053121;28;20479;-44
2023/01/07 12:32:05;;;;;;;4.30;3.65;;;11.00;99.90;;;;;;5052896;28;20109;-43
2023/01/07 12:34:54;;;;;;;5.65;3.92;;;11.00;99.90;;;;;;5052914;28;20029;-43
2023/01/07 12:37:43;;;;;;;5.47;4.15;;;11.00;99.90;;;;;;5052604;28;20107;-43
2023/01/07 12:40:08;;;;;;;5.00;3.80;;;10.90;99.90;;;;;;5052802;28;20438;-44
2023/01/07 12:42:39;;;;;;;4.68;3.58;;;10.90;99.90;;;;;;5053031;28;20028;-41
2023/01/07 12:45:14;;;;;;;4.82;3.65;;;10.90;99.90;;;;;;5052856;28;20025;-43
2023/01/07 12:47:49;;;;;;;5.05;3.92;;;10.90;99.90;;;;;;5052454;28;20108;-44
2023/01/07 12:50:26;;;;;;;4.75;3.45;;;10.90;99.90;;;;;;5052569;28;20029;-42
2023/01/07 12:53:01;;;;;;;6.32;4.30;;;10.80;99.90;;;;;;5052751;28;20067;-44
2023/01/07 12:55:42;;;;;;;4.28;3.72;;;10.80;99.90;;;;;;5052679;28;20033;-44
2023/01/07 12:58:35;;;;;;;6.10;4.32;;;10.80;99.90;;;;;;5052928;28;20071;-43
2023/01/07 13:01:30;;;;;;;5.32;3.67;;;10.80;99.90;;;;;;5052818;28;20112;-43
2023/01/07 13:04:14;;;;;;;5.53;4.22;;;10.80;99.90;;;;;;5052181;28;20029;-44
2023/01/07 13:06:53;;;;;;;4.72;3.53;;;10.80;99.90;;;;;;5052076;28;20036;-44
2023/01/07 13:09:21;;;;;;;5.40;3.75;;;10.80;99.90;;;;;;5052056;28;20497;-43
2023/01/07 13:15:00;;;;;;;5.47;3.75;;;10.70;99.90;;;;;;5051859;28;20105;-44
2023/01/07 13:17:31;;;;;;;4.72;3.80;;;10.70;99.90;;;;;;5052225;28;20561;-43